createdAt,value
2022-12-01T00:00:40.076Z,19.90
2022-12-01T00:05:43.985Z,19.13
2022-12-01T00:10:46.760Z,20.08
2022-12-01T00:15:48.618Z,21.23
2022-12-01T00:20:55.995Z,20.80
2022-12-01T00:26:05.311Z,21.08
2022-12-01T00:31:08.684Z,21.88
2022-12-01T00:36:10.765Z,22.70
2022-12-01T00:41:12.651Z,23.70
2022-12-01T00:46:14.648Z,24.00
2022-12-01T00:51:16.662Z,24.08
2022-12-01T00:56:18.803Z,24.25
2022-12-01T01:01:20.808Z,24.40
2022-12-01T01:06:22.769Z,24.55
2022-12-01T01:11:25.203Z,24.13
2022-12-01T01:16:27.339Z,24.42
2022-12-01T01:21:29.292Z,23.25
2022-12-01T01:26:32.670Z,23.80
2022-12-01T01:31:35.179Z,22.58
2022-12-01T01:36:37.075Z,22.55
2022-12-01T01:41:39.032Z,21.45
2022-12-01T01:46:40.947Z,21.17
2022-12-01T01:51:51.361Z,21.00
2022-12-01T01:56:55.304Z,21.00
2022-12-01T02:02:03.673Z,20.60
2022-12-01T02:07:07.076Z,21.08
2022-12-01T02:12:17.203Z,20.80
2022-12-01T02:17:43.041Z,20.83
2022-12-01T02:23:03.635Z,20.55
2022-12-01T02:28:24.779Z,20.35
2022-12-01T02:33:53.149Z,21.38
2022-12-01T02:39:09.370Z,23.13
2022-12-01T02:44:19.807Z,21.63
2022-12-01T02:49:26.787Z,22.30
2022-12-01T02:54:31.225Z,23.27
2022-12-01T02:59:33.346Z,23.33
2022-12-01T03:04:56.801Z,22.83
2022-12-01T03:10:37.080Z,22.55
2022-12-01T03:16:25.604Z,21.98
2022-12-01T03:21:35.256Z,33.40
2022-12-01T03:26:38.972Z,33.65
2022-12-01T03:36:50.227Z,23.48
2022-12-01T03:41:59.092Z,27.52
2022-12-01T03:47:04.873Z,55.50
2022-12-01T03:52:38.872Z,27.75
2022-12-01T03:58:05.639Z,25.38
2022-12-01T04:03:07.786Z,26.05
2022-12-01T04:08:09.753Z,25.48
2022-12-01T04:13:22.977Z,27.95
2022-12-01T04:18:25.038Z,26.35
2022-12-01T04:23:45.652Z,25.20
2022-12-01T04:28:47.957Z,25.48
2022-12-01T04:33:50.121Z,26.30
2022-12-01T04:38:52.502Z,27.35
2022-12-01T04:43:55.176Z,23.58
2022-12-01T04:48:57.078Z,24.02
2022-12-01T04:53:58.937Z,22.35
2022-12-01T04:59:00.956Z,20.25
2022-12-01T05:04:03.179Z,21.65
2022-12-01T05:09:05.734Z,22.00
2022-12-01T05:14:07.733Z,21.15
2022-12-01T05:19:28.370Z,22.10
2022-12-01T05:24:30.199Z,22.33
2022-12-01T05:29:33.036Z,22.98
2022-12-01T05:34:35.029Z,21.83
2022-12-01T05:39:36.962Z,23.55
2022-12-01T05:44:38.844Z,24.25
2022-12-01T05:49:40.699Z,25.90
2022-12-01T05:54:43.178Z,29.13
2022-12-01T05:59:45.123Z,26.25
2022-12-01T06:04:47.187Z,27.33
2022-12-01T06:09:49.819Z,25.25
2022-12-01T06:14:51.933Z,25.43
2022-12-01T06:19:53.841Z,21.98
2022-12-01T06:24:55.700Z,23.48
2022-12-01T06:29:57.629Z,22.30
2022-12-01T06:34:59.580Z,22.88
2022-12-01T06:40:01.492Z,21.30
2022-12-01T06:45:04.672Z,22.00
2022-12-01T06:50:08.719Z,23.80
2022-12-01T06:55:10.652Z,22.77
2022-12-01T07:00:13.536Z,25.13
2022-12-01T07:05:16.241Z,24.02
2022-12-01T07:10:18.297Z,25.30
2022-12-01T07:15:20.296Z,24.25
2022-12-01T07:20:22.238Z,26.40
2022-12-01T07:25:24.249Z,29.02
2022-12-01T07:30:28.579Z,30.27
2022-12-01T07:35:30.871Z,28.40
2022-12-01T07:40:32.730Z,28.58
2022-12-01T07:45:34.672Z,28.17
2022-12-01T07:50:36.717Z,26.90
2022-12-01T07:55:38.561Z,27.17
2022-12-01T08:00:40.704Z,28.08
2022-12-01T08:05:42.812Z,26.60
2022-12-01T08:10:44.672Z,26.77
2022-12-01T08:15:46.772Z,26.17
2022-12-01T08:20:49.892Z,25.67
2022-12-01T08:25:52.617Z,26.33
2022-12-01T08:30:54.571Z,25.23
2022-12-01T08:35:56.440Z,25.02
2022-12-01T08:41:03.583Z,25.73
2022-12-01T08:46:13.560Z,25.42
2022-12-01T08:51:21.640Z,26.10
2022-12-01T08:56:27.445Z,26.63
2022-12-01T09:01:29.599Z,25.90
2022-12-01T09:06:34.589Z,23.73
2022-12-01T09:11:36.604Z,24.27
2022-12-01T09:16:39.773Z,24.35
2022-12-01T09:21:43.401Z,25.63
2022-12-01T09:26:45.292Z,26.08
2022-12-01T09:31:47.243Z,27.88
2022-12-01T09:36:49.557Z,30.23
2022-12-01T09:41:59.522Z,31.20
2022-12-01T09:47:19.213Z,31.50
2022-12-01T09:52:24.033Z,30.48
2022-12-01T09:57:35.331Z,30.02
2022-12-01T10:02:51.043Z,28.48
2022-12-01T10:08:05.790Z,29.45
2022-12-01T10:13:28.101Z,29.58
2022-12-01T10:18:53.500Z,28.10
2022-12-01T10:24:01.381Z,27.20
2022-12-01T10:29:13.980Z,26.20
2022-12-01T10:34:31.046Z,27.33
2022-12-01T10:39:37.940Z,27.92
2022-12-01T10:44:40.417Z,26.92
2022-12-01T10:49:42.638Z,27.65
2022-12-01T10:54:44.610Z,26.83
2022-12-01T10:59:52.275Z,27.27
2022-12-01T11:05:04.249Z,27.27
2022-12-01T11:10:18.557Z,30.05
2022-12-01T11:15:24.335Z,33.50
2022-12-01T11:20:38.040Z,36.78
2022-12-01T11:25:39.961Z,38.45
2022-12-01T11:30:41.866Z,41.28
2022-12-01T11:35:49.171Z,38.03
2022-12-01T11:40:59.940Z,36.28
2022-12-01T11:46:06.414Z,35.25
2022-12-01T11:51:18.233Z,29.95
2022-12-01T11:56:23.803Z,26.88
2022-12-01T12:01:51.474Z,27.92
2022-12-01T12:06:58.888Z,27.55
2022-12-01T12:12:10.009Z,26.73
2022-12-01T12:17:44.012Z,23.33
2022-12-01T12:23:04.159Z,21.50
2022-12-01T12:28:22.793Z,22.50
2022-12-01T12:33:36.368Z,18.40
2022-12-01T12:38:58.237Z,20.30
2022-12-01T12:44:46.797Z,16.60
2022-12-01T12:50:29.860Z,16.23
2022-12-01T12:55:45.891Z,15.10
2022-12-01T13:00:57.540Z,15.13
2022-12-01T13:06:05.762Z,14.82
2022-12-01T13:11:22.049Z,15.70
2022-12-01T13:16:33.020Z,13.75
2022-12-01T13:21:41.767Z,14.20
2022-12-01T13:26:47.034Z,14.93
2022-12-01T13:31:52.212Z,15.18
2022-12-01T13:36:56.160Z,16.25
2022-12-01T13:42:19.912Z,16.50
2022-12-01T13:47:24.725Z,16.75
2022-12-01T13:52:29.608Z,17.38
2022-12-01T13:57:37.581Z,16.55
2022-12-01T14:02:39.776Z,18.25
2022-12-01T14:07:42.234Z,18.75
2022-12-01T14:12:46.339Z,18.02
2022-12-01T14:17:57.917Z,17.73
2022-12-01T14:23:13.207Z,19.38
2022-12-01T14:28:17.417Z,17.77
2022-12-01T14:33:38.966Z,18.00
2022-12-01T14:38:42.177Z,19.85
2022-12-01T14:44:03.353Z,17.85
2022-12-01T14:49:06.344Z,19.25
2022-12-01T14:54:15.373Z,20.27
2022-12-01T14:59:24.258Z,18.58
2022-12-01T15:04:26.255Z,18.17
2022-12-01T15:09:36.195Z,19.33
2022-12-01T15:14:47.007Z,19.67
2022-12-01T15:19:49.676Z,18.77
2022-12-01T15:24:52.114Z,24.90
2022-12-01T15:29:55.531Z,23.20
2022-12-01T15:35:01.872Z,20.52
2022-12-01T15:40:59.647Z,20.67
2022-12-01T15:45:43.372Z,19.02
2022-12-01T15:51:08.980Z,19.05
2022-12-01T15:56:12.051Z,20.48
2022-12-01T16:01:21.268Z,21.27
2022-12-01T16:06:28.937Z,22.90
2022-12-01T16:11:30.852Z,24.20
2022-12-01T16:16:45.156Z,22.77
2022-12-01T16:21:56.204Z,22.67
2022-12-01T16:27:04.305Z,22.92
2022-12-01T16:32:21.291Z,25.48
2022-12-01T16:37:23.769Z,25.65
2022-12-01T16:42:25.876Z,21.35
2022-12-01T16:47:31.828Z,29.25
2022-12-01T16:52:44.589Z,22.75
2022-12-01T16:57:53.833Z,23.20
2022-12-01T17:03:00.506Z,30.10
2022-12-01T17:08:02.570Z,25.38
2022-12-01T17:13:04.497Z,25.33
2022-12-01T17:18:06.461Z,23.88
2022-12-01T17:23:08.885Z,24.13
2022-12-01T17:28:10.756Z,21.92
2022-12-01T17:33:13.532Z,24.35
2022-12-01T17:38:15.473Z,22.80
2022-12-01T17:43:17.436Z,22.63
2022-12-01T17:48:19.365Z,25.10
2022-12-01T17:53:21.302Z,25.23
2022-12-01T17:58:31.360Z,28.58
2022-12-01T18:03:36.439Z,25.50
2022-12-01T18:08:39.697Z,28.90
2022-12-01T18:13:44.130Z,31.52
2022-12-01T18:18:46.284Z,24.50
2022-12-01T18:23:58.417Z,24.67
2022-12-01T18:29:04.839Z,27.23
2022-12-01T18:34:07.569Z,28.05
2022-12-01T18:39:17.155Z,35.90
2022-12-01T18:44:25.791Z,27.52
2022-12-01T18:49:27.946Z,24.65
2022-12-01T18:54:29.925Z,23.25
2022-12-01T18:59:31.883Z,22.70
2022-12-01T19:04:35.499Z,20.80
2022-12-01T19:09:37.371Z,20.67
2022-12-01T19:14:39.481Z,23.40
2022-12-01T19:19:44.377Z,23.35
2022-12-01T19:24:50.239Z,23.77
2022-12-01T19:29:54.089Z,24.23
2022-12-01T19:39:58.202Z,28.10
2022-12-01T19:45:01.196Z,28.00
2022-12-01T19:50:03.924Z,22.73
2022-12-01T19:55:06.348Z,21.40
2022-12-01T20:00:10.473Z,20.08
2022-12-01T20:05:16.119Z,20.88
2022-12-01T20:10:20.249Z,23.30
2022-12-01T20:15:22.217Z,23.55
2022-12-01T20:20:24.212Z,20.58
2022-12-01T20:25:26.452Z,21.05
2022-12-01T20:30:28.325Z,24.10
2022-12-01T20:35:30.471Z,24.35
2022-12-01T20:40:32.389Z,28.50
2022-12-01T20:45:34.341Z,27.17
2022-12-01T20:50:36.293Z,21.90
2022-12-01T20:55:38.359Z,22.30
2022-12-01T21:00:45.974Z,19.45
2022-12-01T21:05:48.264Z,20.40
2022-12-01T21:10:50.339Z,19.85
2022-12-01T21:16:01.643Z,22.85
2022-12-01T21:21:10.261Z,20.15
2022-12-01T21:26:19.107Z,19.42
2022-12-01T21:31:21.181Z,20.27
2022-12-01T21:36:26.195Z,19.40
2022-12-01T21:41:30.197Z,20.15
2022-12-01T21:46:32.327Z,20.80
2022-12-01T21:51:34.300Z,20.33
2022-12-01T21:56:36.326Z,28.55
2022-12-01T22:01:40.393Z,28.80
2022-12-01T22:06:46.422Z,46.83
2022-12-01T22:11:52.896Z,18.05
2022-12-01T22:16:58.084Z,18.27
2022-12-01T22:22:09.183Z,17.42
2022-12-01T22:27:25.578Z,17.85
2022-12-01T22:32:38.165Z,19.75
2022-12-01T22:37:53.503Z,22.42
2022-12-01T22:42:55.491Z,17.45
2022-12-01T22:48:01.959Z,17.33
2022-12-01T22:53:14.215Z,19.48
2022-12-01T22:58:33.184Z,18.92
2022-12-01T23:03:35.137Z,20.20
2022-12-01T23:08:37.141Z,18.85
2022-12-01T23:13:39.019Z,19.45
2022-12-01T23:18:40.959Z,19.20
2022-12-01T23:23:42.904Z,19.02
2022-12-01T23:28:45.004Z,20.17
2022-12-01T23:33:53.523Z,20.25
2022-12-01T23:38:58.736Z,19.08
2022-12-01T23:44:08.805Z,19.30
2022-12-01T23:49:15.750Z,19.42
2022-12-01T23:54:27.296Z,21.27
2022-12-01T23:59:30.925Z,21.65
